Time,TemperatureF,DewpointF,PressureIn,WindDirection,WindDirectionDegrees,WindSpeedMPH,WindSpeedGustMPH,Humidity,HourlyPrecipIn,Conditions,Clouds,dailyrainin,SolarRadiationWatts/m^2,SoftwareType,DateUTC
2013-07-27 00:02:00,67.0,66.0,-100.00,North,353,1.0,2.0,98,0.00,,,0.51,0.000000,,2013-07-27 04:02:00,
2013-07-27 00:32:00,67.0,66.0,-100.00,North,353,1.0,2.0,98,0.00,,,0.51,0.000000,,2013-07-27 04:32:00,
2013-07-27 00:43:00,67.0,66.0,-100.00,North,353,1.0,2.0,98,0.00,,,0.51,0.000000,,2013-07-27 04:43:00,
2013-07-27 00:53:00,67.0,66.0,-100.00,North,353,1.0,2.0,98,0.00,,,0.51,0.000000,,2013-07-27 04:53:00,
2013-07-27 01:02:00,67.0,67.0,-100.00,NNE,14,1.0,2.0,99,0.00,,,0.51,0.000000,,2013-07-27 05:02:00,
2013-07-27 01:33:00,67.0,67.0,-100.00,NNE,14,1.0,2.0,99,0.00,,,0.51,0.000000,,2013-07-27 05:33:00,
2013-07-27 01:43:00,67.0,67.0,-100.00,NNE,14,1.0,2.0,99,0.00,,,0.51,0.000000,,2013-07-27 05:43:00,
2013-07-27 01:52:00,67.0,67.0,-100.00,NNE,14,1.0,2.0,99,0.00,,,0.51,0.000000,,2013-07-27 05:52:00,
2013-07-27 02:02:00,68.0,68.0,-100.00,NNE,29,0.0,2.0,99,0.00,,,0.51,0.000000,,2013-07-27 06:02:00,
2013-07-27 02:33:00,68.0,68.0,-100.00,NNE,29,0.0,2.0,99,0.00,,,0.51,0.000000,,2013-07-27 06:33:00,
2013-07-27 02:43:00,68.0,68.0,-100.00,NNE,29,0.0,2.0,99,0.00,,,0.51,0.000000,,2013-07-27 06:43:00,
2013-07-27 02:52:00,68.0,68.0,-100.00,NNE,29,0.0,2.0,99,0.00,,,0.51,0.000000,,2013-07-27 06:52:00,
2013-07-27 03:02:00,68.0,68.0,-100.00,NNW,335,2.0,2.0,99,0.00,,,0.51,0.000000,,2013-07-27 07:02:00,
2013-07-27 03:34:00,68.0,68.0,-100.00,NNW,335,2.0,2.0,99,0.00,,,0.51,0.000000,,2013-07-27 07:34:00,
2013-07-27 03:44:00,68.0,68.0,-100.00,NNW,335,2.0,2.0,99,0.00,,,0.51,0.000000,,2013-07-27 07:44:00,
2013-07-27 03:53:00,68.0,68.0,-100.00,NNW,335,2.0,2.0,99,0.00,,,0.51,0.000000,,2013-07-27 07:53:00,
2013-07-27 04:02:00,68.0,68.0,-100.00,NE,37,1.0,2.0,99,0.00,,,0.51,0.000000,,2013-07-27 08:02:00,
2013-07-27 04:22:00,68.0,68.0,-100.00,NE,37,1.0,2.0,99,0.00,,,0.51,0.000000,,2013-07-27 08:22:00,
2013-07-27 04:32:00,68.0,68.0,-100.00,NE,37,1.0,2.0,99,0.00,,,0.51,0.000000,,2013-07-27 08:32:00,
2013-07-27 04:43:00,68.0,68.0,-100.00,NE,37,1.0,2.0,99,0.00,,,0.51,0.000000,,2013-07-27 08:43:00,
2013-07-27 04:53:00,68.0,68.0,-100.00,NE,37,1.0,2.0,99,0.00,,,0.51,0.000000,,2013-07-27 08:53:00,
2013-07-27 05:02:00,68.0,68.0,-100.00,North,2,0.0,2.0,99,0.00,,,0.51,0.000000,,2013-07-27 09:02:00,
2013-07-27 05:22:00,68.0,68.0,-100.00,North,2,0.0,2.0,99,0.00,,,0.51,0.000000,,2013-07-27 09:22:00,
2013-07-27 05:33:00,68.0,68.0,-100.00,North,2,0.0,2.0,99,0.00,,,0.51,0.000000,,2013-07-27 09:33:00,
2013-07-27 05:44:00,68.0,68.0,-100.00,North,2,0.0,2.0,99,0.00,,,0.51,0.000000,,2013-07-27 09:44:00,
2013-07-27 05:52:00,68.0,68.0,-100.00,North,2,0.0,2.0,99,0.00,,,0.51,0.000000,,2013-07-27 09:52:00,
2013-07-27 06:02:00,69.0,69.0,-100.00,East,100,0.0,0.0,99,0.00,,,0.51,0.000000,,2013-07-27 10:02:00,
2013-07-27 06:32:00,69.0,69.0,-100.00,East,100,0.0,0.0,99,0.00,,,0.51,0.000000,,2013-07-27 10:32:00,
2013-07-27 06:44:00,69.0,69.0,-100.00,East,100,0.0,0.0,99,0.00,,,0.51,0.000000,,2013-07-27 10:44:00,
2013-07-27 06:52:00,69.0,69.0,-100.00,East,100,0.0,0.0,99,0.00,,,0.51,0.000000,,2013-07-27 10:52:00,
2013-07-27 07:02:00,69.0,69.0,-100.00,NNW,335,1.0,2.0,99,0.00,,,0.51,1.000000,,2013-07-27 11:02:00,
2013-07-27 07:32:00,69.0,69.0,-100.00,NNW,335,1.0,2.0,99,0.00,,,0.51,1.000000,,2013-07-27 11:32:00,
2013-07-27 07:44:00,69.0,69.0,-100.00,NNW,335,1.0,2.0,99,0.00,,,0.51,1.000000,,2013-07-27 11:44:00,
2013-07-27 07:53:00,69.0,69.0,-100.00,NNW,335,1.0,2.0,99,0.00,,,0.51,1.000000,,2013-07-27 11:53:00,
2013-07-27 08:02:00,69.0,69.0,-100.00,North,3,0.0,2.0,99,0.00,,,0.51,25.000000,,2013-07-27 12:02:00,
2013-07-27 08:33:00,69.0,69.0,-100.00,North,3,0.0,2.0,99,0.00,,,0.51,25.000000,,2013-07-27 12:33:00,
2013-07-27 08:43:00,69.0,69.0,-100.00,North,3,0.0,2.0,99,0.00,,,0.51,25.000000,,2013-07-27 12:43:00,
2013-07-27 08:52:00,69.0,69.0,-100.00,North,3,0.0,2.0,99,0.00,,,0.51,25.000000,,2013-07-27 12:52:00,
2013-07-27 09:02:00,71.0,70.0,-100.00,SE,129,0.0,3.0,98,0.00,,,0.51,92.000000,,2013-07-27 13:02:00,
2013-07-27 09:44:00,71.0,70.0,-100.00,SE,129,0.0,3.0,98,0.00,,,0.51,92.000000,,2013-07-27 13:44:00,
2013-07-27 09:53:00,71.0,70.0,-100.00,SE,129,0.0,3.0,98,0.00,,,0.51,92.000000,,2013-07-27 13:53:00,
2013-07-27 10:02:00,74.0,72.0,-100.00,NNW,327,1.0,5.0,92,0.00,,,0.51,183.000000,,2013-07-27 14:02:00,
2013-07-27 10:33:00,74.0,72.0,-100.00,NNW,327,1.0,5.0,92,0.00,,,0.51,183.000000,,2013-07-27 14:33:00,
2013-07-27 10:44:00,74.0,72.0,-100.00,NNW,327,1.0,5.0,92,0.00,,,0.51,183.000000,,2013-07-27 14:44:00,
2013-07-27 10:54:00,74.0,72.0,-100.00,NNW,327,1.0,5.0,92,0.00,,,0.51,183.000000,,2013-07-27 14:54:00,
2013-07-27 11:02:00,76.0,72.0,-100.00,North,349,1.0,5.0,87,0.00,,,0.51,222.000000,,2013-07-27 15:02:00,
2013-07-27 11:33:00,76.0,72.0,-100.00,North,349,1.0,5.0,87,0.00,,,0.51,222.000000,,2013-07-27 15:33:00,
2013-07-27 11:44:00,76.0,72.0,-100.00,North,349,1.0,5.0,87,0.00,,,0.51,222.000000,,2013-07-27 15:44:00,
2013-07-27 11:53:00,76.0,72.0,-100.00,North,349,1.0,5.0,87,0.00,,,0.51,222.000000,,2013-07-27 15:53:00,
2013-07-27 12:02:00,79.0,72.0,-100.00,NW,320,2.0,5.0,79,0.00,,,0.51,335.000000,,2013-07-27 16:02:00,
2013-07-27 12:33:00,79.0,72.0,-100.00,NW,320,2.0,5.0,79,0.00,,,0.51,335.000000,,2013-07-27 16:33:00,
2013-07-27 12:43:00,79.0,72.0,-100.00,NW,320,2.0,5.0,79,0.00,,,0.51,335.000000,,2013-07-27 16:43:00,
2013-07-27 12:54:00,79.0,72.0,-100.00,NW,320,2.0,5.0,79,0.00,,,0.51,335.000000,,2013-07-27 16:54:00,
2013-07-27 13:02:00,80.0,71.0,-100.00,WNW,298,2.0,5.0,75,0.00,,,0.51,322.000000,,2013-07-27 17:02:00,
2013-07-27 13:23:00,80.0,71.0,-100.00,WNW,298,2.0,5.0,75,0.00,,,0.51,322.000000,,2013-07-27 17:23:00,
2013-07-27 13:32:00,80.0,71.0,-100.00,WNW,298,2.0,5.0,75,0.00,,,0.51,322.000000,,2013-07-27 17:32:00,
2013-07-27 13:43:00,80.0,71.0,-100.00,WNW,298,2.0,5.0,75,0.00,,,0.51,322.000000,,2013-07-27 17:43:00,
2013-07-27 13:54:00,80.0,71.0,-100.00,WNW,298,2.0,5.0,75,0.00,,,0.51,322.000000,,2013-07-27 17:54:00,
2013-07-27 14:02:00,80.0,72.0,-100.00,SW,215,2.0,6.0,76,0.00,,,0.51,388.000000,,2013-07-27 18:02:00,
2013-07-27 14:22:00,80.0,72.0,-100.00,SW,215,2.0,6.0,76,0.00,,,0.51,388.000000,,2013-07-27 18:22:00,
2013-07-27 14:33:00,80.0,72.0,-100.00,SW,215,2.0,6.0,76,0.00,,,0.51,388.000000,,2013-07-27 18:33:00,
2013-07-27 14:43:00,80.0,72.0,-100.00,SW,215,2.0,6.0,76,0.00,,,0.51,388.000000,,2013-07-27 18:43:00,
2013-07-27 14:53:00,80.0,72.0,-100.00,SW,215,2.0,6.0,76,0.00,,,0.51,388.000000,,2013-07-27 18:53:00,
2013-07-27 15:02:00,78.0,69.0,-100.00,WSW,247,3.0,6.0,75,0.00,,,0.51,293.000000,,2013-07-27 19:02:00,
2013-07-27 15:23:00,78.0,69.0,-100.00,WSW,247,3.0,6.0,75,0.00,,,0.51,293.000000,,2013-07-27 19:23:00,
2013-07-27 15:32:00,78.0,69.0,-100.00,WSW,247,3.0,6.0,75,0.00,,,0.51,293.000000,,2013-07-27 19:32:00,
2013-07-27 15:43:00,78.0,69.0,-100.00,WSW,247,3.0,6.0,75,0.00,,,0.51,293.000000,,2013-07-27 19:43:00,
2013-07-27 15:53:00,78.0,69.0,-100.00,WSW,247,3.0,6.0,75,0.00,,,0.51,293.000000,,2013-07-27 19:53:00,
2013-07-27 16:02:00,79.0,69.0,-100.00,West,267,3.0,7.0,71,0.00,,,0.51,374.000000,,2013-07-27 20:02:00,
2013-07-27 16:23:00,79.0,69.0,-100.00,West,267,3.0,7.0,71,0.00,,,0.51,374.000000,,2013-07-27 20:23:00,
2013-07-27 16:33:00,79.0,69.0,-100.00,West,267,3.0,7.0,71,0.00,,,0.51,374.000000,,2013-07-27 20:33:00,
2013-07-27 16:43:00,79.0,69.0,-100.00,West,267,3.0,7.0,71,0.00,,,0.51,374.000000,,2013-07-27 20:43:00,
2013-07-27 16:52:00,79.0,69.0,-100.00,West,267,3.0,7.0,71,0.00,,,0.51,374.000000,,2013-07-27 20:52:00,
2013-07-27 17:02:00,78.0,69.0,-100.00,WSW,255,2.0,5.0,74,0.00,,,0.51,240.000000,,2013-07-27 21:02:00,
2013-07-27 17:23:00,78.0,69.0,-100.00,WSW,255,2.0,5.0,74,0.00,,,0.51,240.000000,,2013-07-27 21:23:00,
2013-07-27 17:33:00,78.0,69.0,-100.00,WSW,255,2.0,5.0,74,0.00,,,0.51,240.000000,,2013-07-27 21:33:00,
2013-07-27 17:43:00,78.0,69.0,-100.00,WSW,255,2.0,5.0,74,0.00,,,0.51,240.000000,,2013-07-27 21:43:00,
2013-07-27 17:53:00,78.0,69.0,-100.00,WSW,255,2.0,5.0,74,0.00,,,0.51,240.000000,,2013-07-27 21:53:00,
2013-07-27 18:02:00,78.0,70.0,-100.00,SW,236,2.0,5.0,76,0.00,,,0.09,207.000000,,2013-07-27 22:02:00,
2013-07-27 18:22:00,78.0,70.0,-100.00,SW,236,2.0,5.0,76,0.00,,,0.09,207.000000,,2013-07-27 22:22:00,
2013-07-27 18:33:00,78.0,70.0,-100.00,SW,236,2.0,5.0,76,0.00,,,0.09,207.000000,,2013-07-27 22:33:00,
2013-07-27 18:43:00,78.0,70.0,-100.00,SW,236,2.0,5.0,76,0.00,,,0.09,207.000000,,2013-07-27 22:43:00,
2013-07-27 18:53:00,78.0,70.0,-100.00,SW,236,2.0,5.0,76,0.00,,,0.09,207.000000,,2013-07-27 22:53:00,
2013-07-27 19:02:00,78.0,68.0,-100.00,West,269,2.0,5.0,72,0.00,,,0.00,216.000000,,2013-07-27 23:02:00,
2013-07-27 19:22:00,78.0,68.0,-100.00,West,269,2.0,5.0,72,0.00,,,0.00,216.000000,,2013-07-27 23:22:00,
2013-07-27 19:32:00,78.0,68.0,-100.00,West,269,2.0,5.0,72,0.00,,,0.00,216.000000,,2013-07-27 23:32:00,
2013-07-27 19:44:00,78.0,68.0,-100.00,West,269,2.0,5.0,72,0.00,,,0.00,216.000000,,2013-07-27 23:44:00,
2013-07-27 19:53:00,78.0,68.0,-100.00,West,269,2.0,5.0,72,0.00,,,0.00,216.000000,,2013-07-27 23:53:00,
2013-07-27 20:02:00,75.0,68.0,-100.00,WSW,240,1.0,4.0,79,0.00,,,0.00,114.000000,,2013-07-28 00:02:00,
2013-07-27 20:23:00,75.0,68.0,-100.00,WSW,240,1.0,4.0,79,0.00,,,0.00,114.000000,,2013-07-28 00:23:00,
2013-07-27 20:32:00,75.0,68.0,-100.00,WSW,240,1.0,4.0,79,0.00,,,0.00,114.000000,,2013-07-28 00:32:00,
2013-07-27 20:44:00,75.0,68.0,-100.00,WSW,240,1.0,4.0,79,0.00,,,0.00,114.000000,,2013-07-28 00:44:00,
2013-07-27 20:53:00,75.0,68.0,-100.00,WSW,240,1.0,4.0,79,0.00,,,0.00,114.000000,,2013-07-28 00:53:00,
2013-07-27 21:02:00,71.0,68.0,-100.00,SSE,167,0.0,2.0,91,0.00,,,0.00,10.000000,,2013-07-28 01:02:00,
2013-07-27 21:23:00,71.0,68.0,-100.00,SSE,167,0.0,2.0,91,0.00,,,0.00,10.000000,,2013-07-28 01:23:00,
2013-07-27 21:32:00,71.0,68.0,-100.00,SSE,167,0.0,2.0,91,0.00,,,0.00,10.000000,,2013-07-28 01:32:00,
2013-07-27 21:43:00,71.0,68.0,-100.00,SSE,167,0.0,2.0,91,0.00,,,0.00,10.000000,,2013-07-28 01:43:00,
2013-07-27 21:53:00,71.0,68.0,-100.00,SSE,167,0.0,2.0,91,0.00,,,0.00,10.000000,,2013-07-28 01:53:00,
2013-07-27 22:02:00,70.0,68.0,-100.00,SSE,165,0.0,2.0,94,0.00,,,0.00,0.000000,,2013-07-28 02:02:00,
2013-07-27 22:23:00,70.0,68.0,-100.00,SSE,165,0.0,2.0,94,0.00,,,0.00,0.000000,,2013-07-28 02:23:00,
2013-07-27 22:32:00,70.0,68.0,-100.00,SSE,165,0.0,2.0,94,0.00,,,0.00,0.000000,,2013-07-28 02:32:00,
2013-07-27 22:42:00,70.0,68.0,-100.00,SSE,165,0.0,2.0,94,0.00,,,0.00,0.000000,,2013-07-28 02:42:00,
2013-07-27 22:53:00,70.0,68.0,-100.00,SSE,165,0.0,2.0,94,0.00,,,0.00,0.000000,,2013-07-28 02:53:00,
2013-07-27 23:02:00,69.0,68.0,-100.00,SSE,160,0.0,1.0,96,0.00,,,0.00,0.000000,,2013-07-28 03:02:00,
2013-07-27 23:22:00,69.0,68.0,-100.00,SSE,160,0.0,1.0,96,0.00,,,0.00,0.000000,,2013-07-28 03:22:00,
2013-07-27 23:32:00,69.0,68.0,-100.00,SSE,160,0.0,1.0,96,0.00,,,0.00,0.000000,,2013-07-28 03:32:00,
2013-07-27 23:43:00,69.0,68.0,-100.00,SSE,160,0.0,1.0,96,0.00,,,0.00,0.000000,,2013-07-28 03:43:00,
2013-07-27 23:53:00,69.0,68.0,-100.00,SSE,160,0.0,1.0,96,0.00,,,0.00,0.000000,,2013-07-28 03:53:00,